Time,TemperatureF,DewpointF,PressureIn,WindDirection,WindDirectionDegrees,WindSpeedMPH,WindSpeedGustMPH,Humidity,HourlyPrecipIn,Conditions,Clouds,dailyrainin,SoftwareType,DateUTC
2013-05-30 00:01:00,50.0,50.0,-100.00,SW,225,2.0,4.0,98,-99.99,,,-99.99,,2013-05-30 07:01:00,
2013-05-30 00:12:00,50.0,50.0,-100.00,SW,225,2.0,4.0,98,-99.99,,,-99.99,,2013-05-30 07:12:00,
2013-05-30 00:21:00,50.0,50.0,-100.00,SW,225,2.0,4.0,98,-99.99,,,-99.99,,2013-05-30 07:21:00,
2013-05-30 00:31:00,50.0,50.0,-100.00,SW,225,2.0,6.0,97,-99.99,,,-99.99,,2013-05-30 07:31:00,
2013-05-30 00:42:00,50.0,50.0,-100.00,SW,225,2.0,6.0,97,-99.99,,,-99.99,,2013-05-30 07:42:00,
2013-05-30 00:52:00,50.0,49.0,-100.00,West,270,3.0,7.0,95,-99.99,,,-99.99,,2013-05-30 07:52:00,
2013-05-30 01:02:00,50.0,48.0,-100.00,SW,225,1.0,10.0,95,-99.99,,,-99.99,,2013-05-30 08:02:00,
2013-05-30 01:11:00,50.0,48.0,-100.00,SW,225,1.0,10.0,95,-99.99,,,-99.99,,2013-05-30 08:11:00,
2013-05-30 01:21:00,50.0,48.0,-100.00,West,270,2.0,3.0,96,-99.99,,,-99.99,,2013-05-30 08:21:00,
2013-05-30 01:31:00,50.0,48.0,-100.00,South,180,1.0,4.0,96,-99.99,,,-99.99,,2013-05-30 08:31:00,
2013-05-30 01:42:00,50.0,48.0,-100.00,South,180,1.0,4.0,96,-99.99,,,-99.99,,2013-05-30 08:42:00,
2013-05-30 01:53:00,49.0,48.0,-100.00,South,180,0.0,4.0,97,-99.99,,,-99.99,,2013-05-30 08:53:00,
2013-05-30 02:01:00,49.0,48.0,-100.00,South,180,4.0,8.0,97,-99.99,,,-99.99,,2013-05-30 09:01:00,
2013-05-30 02:11:00,49.0,48.0,-100.00,South,180,4.0,8.0,97,-99.99,,,-99.99,,2013-05-30 09:11:00,
2013-05-30 02:21:00,49.0,48.0,-100.00,SW,225,3.0,6.0,97,-99.99,,,-99.99,,2013-05-30 09:21:00,
2013-05-30 02:32:00,49.0,48.0,-100.00,South,180,4.0,9.0,96,-99.99,,,-99.99,,2013-05-30 09:32:00,
2013-05-30 02:42:00,49.0,48.0,-100.00,South,180,4.0,9.0,96,-99.99,,,-99.99,,2013-05-30 09:42:00,
2013-05-30 02:53:00,48.0,47.0,-100.00,South,180,4.0,6.0,96,-99.99,,,-99.99,,2013-05-30 09:53:00,
2013-05-30 03:02:00,48.0,47.0,-100.00,SW,225,3.0,7.0,96,-99.99,,,-99.99,,2013-05-30 10:02:00,
2013-05-30 03:12:00,49.0,48.0,-100.00,South,180,1.0,3.0,97,-99.99,,,-99.99,,2013-05-30 10:12:00,
2013-05-30 03:22:00,49.0,48.0,-100.00,South,180,1.0,3.0,97,-99.99,,,-99.99,,2013-05-30 10:22:00,
2013-05-30 03:32:00,48.0,48.0,-100.00,SW,225,4.0,9.0,97,-99.99,,,-99.99,,2013-05-30 10:32:00,
2013-05-30 03:42:00,48.0,48.0,-100.00,SW,225,4.0,9.0,97,-99.99,,,-99.99,,2013-05-30 10:42:00,
2013-05-30 03:52:00,48.0,48.0,-100.00,West,270,4.0,8.0,97,-99.99,,,-99.99,,2013-05-30 10:52:00,
2013-05-30 04:03:00,49.0,48.0,-100.00,South,180,3.0,9.0,98,-99.99,,,-99.99,,2013-05-30 11:03:00,
2013-05-30 04:12:00,49.0,48.0,-100.00,South,180,3.0,9.0,98,-99.99,,,-99.99,,2013-05-30 11:12:00,
2013-05-30 04:21:00,49.0,48.0,-100.00,SW,225,4.0,8.0,97,-99.99,,,-99.99,,2013-05-30 11:21:00,
2013-05-30 04:32:00,49.0,47.0,-100.00,South,180,4.0,8.0,95,-99.99,,,-99.99,,2013-05-30 11:32:00,
2013-05-30 04:42:00,49.0,47.0,-100.00,South,180,4.0,8.0,95,-99.99,,,-99.99,,2013-05-30 11:42:00,
2013-05-30 04:52:00,49.0,47.0,-100.00,SW,225,4.0,9.0,95,-99.99,,,-99.99,,2013-05-30 11:52:00,
2013-05-30 05:01:00,49.0,47.0,-100.00,SW,225,4.0,9.0,95,-99.99,,,-99.99,,2013-05-30 12:01:00,
2013-05-30 05:11:00,49.0,47.0,-100.00,SW,225,4.0,9.0,95,-99.99,,,-99.99,,2013-05-30 12:11:00,
2013-05-30 05:22:00,49.0,47.0,-100.00,South,180,3.0,8.0,95,-99.99,,,-99.99,,2013-05-30 12:22:00,
2013-05-30 05:32:00,48.0,47.0,-100.00,South,180,3.0,6.0,95,-99.99,,,-99.99,,2013-05-30 12:32:00,
2013-05-30 05:42:00,48.0,47.0,-100.00,South,180,3.0,6.0,95,-99.99,,,-99.99,,2013-05-30 12:42:00,
2013-05-30 05:52:00,48.0,47.0,-100.00,SW,225,1.0,4.0,95,-99.99,,,-99.99,,2013-05-30 12:52:00,
2013-05-30 06:01:00,48.0,47.0,-100.00,South,180,2.0,7.0,95,-99.99,,,-99.99,,2013-05-30 13:01:00,
2013-05-30 06:11:00,48.0,47.0,-100.00,South,180,2.0,7.0,95,-99.99,,,-99.99,,2013-05-30 13:11:00,
2013-05-30 06:22:00,49.0,47.0,-100.00,North,0,1.0,6.0,95,-99.99,,,-99.99,,2013-05-30 13:22:00,
2013-05-30 06:32:00,49.0,47.0,-100.00,SW,225,3.0,8.0,93,-99.99,,,-99.99,,2013-05-30 13:32:00,
2013-05-30 06:42:00,49.0,47.0,-100.00,SW,225,1.0,5.0,93,-99.99,,,-99.99,,2013-05-30 13:42:00,
2013-05-30 06:52:00,49.0,47.0,-100.00,SW,225,1.0,5.0,93,-99.99,,,-99.99,,2013-05-30 13:52:00,
2013-05-30 07:01:00,49.0,46.0,-100.00,SW,225,4.0,8.0,92,-99.99,,,-99.99,,2013-05-30 14:01:00,
2013-05-30 07:11:00,49.0,46.0,-100.00,SW,225,4.0,8.0,92,-99.99,,,-99.99,,2013-05-30 14:11:00,
2013-05-30 07:21:00,49.0,47.0,-100.00,SW,225,4.0,9.0,92,-99.99,,,-99.99,,2013-05-30 14:21:00,
2013-05-30 07:32:00,49.0,46.0,-100.00,SW,225,3.0,8.0,90,-99.99,,,-99.99,,2013-05-30 14:32:00,
2013-05-30 07:42:00,49.0,46.0,-100.00,SW,225,3.0,8.0,90,-99.99,,,-99.99,,2013-05-30 14:42:00,
2013-05-30 07:52:00,49.0,46.0,-100.00,South,180,3.0,7.0,90,-99.99,,,-99.99,,2013-05-30 14:52:00,
2013-05-30 08:01:00,49.0,46.0,-100.00,SW,225,4.0,7.0,90,-99.99,,,-99.99,,2013-05-30 15:01:00,
2013-05-30 08:11:00,49.0,46.0,-100.00,SW,225,4.0,7.0,90,-99.99,,,-99.99,,2013-05-30 15:11:00,
2013-05-30 08:22:00,49.0,46.0,-100.00,SW,225,4.0,7.0,90,-99.99,,,-99.99,,2013-05-30 15:22:00,
2013-05-30 08:33:00,50.0,47.0,-100.00,South,180,4.0,6.0,90,-99.99,,,-99.99,,2013-05-30 15:33:00,
2013-05-30 08:42:00,50.0,47.0,-100.00,South,180,4.0,6.0,90,-99.99,,,-99.99,,2013-05-30 15:42:00,
2013-05-30 08:52:00,50.0,47.0,-100.00,West,270,4.0,8.0,89,-99.99,,,-99.99,,2013-05-30 15:52:00,
2013-05-30 09:03:00,50.0,47.0,-100.00,SW,225,3.0,7.0,89,-99.99,,,-99.99,,2013-05-30 16:03:00,
2013-05-30 09:12:00,51.0,47.0,-100.00,SW,225,3.0,8.0,88,-99.99,,,-99.99,,2013-05-30 16:12:00,
2013-05-30 09:22:00,51.0,47.0,-100.00,SW,225,3.0,8.0,88,-99.99,,,-99.99,,2013-05-30 16:22:00,
2013-05-30 09:33:00,52.0,48.0,-100.00,SW,225,5.0,9.0,87,-99.99,,,-99.99,,2013-05-30 16:33:00,
2013-05-30 09:42:00,52.0,48.0,-100.00,SW,225,5.0,9.0,87,-99.99,,,-99.99,,2013-05-30 16:42:00,
2013-05-30 09:53:00,52.0,48.0,-100.00,SW,225,4.0,10.0,84,-99.99,,,-99.99,,2013-05-30 16:53:00,
2013-05-30 10:02:00,53.0,47.0,-100.00,SW,225,4.0,9.0,81,-99.99,,,-99.99,,2013-05-30 17:02:00,
2013-05-30 10:11:00,53.0,47.0,-100.00,SW,225,4.0,9.0,81,-99.99,,,-99.99,,2013-05-30 17:11:00,
2013-05-30 10:22:00,53.0,47.0,-100.00,South,180,6.0,11.0,80,-99.99,,,-99.99,,2013-05-30 17:22:00,
2013-05-30 10:32:00,54.0,48.0,-100.00,SW,225,4.0,9.0,82,-99.99,,,-99.99,,2013-05-30 17:32:00,
2013-05-30 10:42:00,54.0,48.0,-100.00,SW,225,4.0,9.0,82,-99.99,,,-99.99,,2013-05-30 17:42:00,
2013-05-30 10:52:00,53.0,48.0,-100.00,SW,225,3.0,9.0,83,-99.99,,,-99.99,,2013-05-30 17:52:00,
2013-05-30 11:02:00,54.0,48.0,-100.00,SW,225,5.0,9.0,79,-99.99,,,-99.99,,2013-05-30 18:02:00,
2013-05-30 11:11:00,56.0,47.0,-100.00,SW,225,7.0,12.0,74,-99.99,,,-99.99,,2013-05-30 18:11:00,
2013-05-30 11:21:00,56.0,47.0,-100.00,SW,225,7.0,12.0,74,-99.99,,,-99.99,,2013-05-30 18:21:00,
2013-05-30 11:32:00,54.0,46.0,-100.00,SW,225,6.0,14.0,76,-99.99,,,-99.99,,2013-05-30 18:32:00,
2013-05-30 11:42:00,54.0,46.0,-100.00,SW,225,6.0,14.0,76,-99.99,,,-99.99,,2013-05-30 18:42:00,
2013-05-30 11:52:00,55.0,46.0,-100.00,West,270,3.0,8.0,72,-99.99,,,-99.99,,2013-05-30 18:52:00,
2013-05-30 12:01:00,55.0,46.0,-100.00,SW,225,8.0,16.0,72,-99.99,,,-99.99,,2013-05-30 19:01:00,
2013-05-30 12:11:00,55.0,47.0,-100.00,SW,225,6.0,12.0,72,-99.99,,,-99.99,,2013-05-30 19:11:00,
2013-05-30 12:22:00,55.0,47.0,-100.00,SW,225,6.0,12.0,72,-99.99,,,-99.99,,2013-05-30 19:22:00,
2013-05-30 12:32:00,57.0,47.0,-100.00,South,180,4.0,10.0,69,-99.99,,,-99.99,,2013-05-30 19:32:00,
2013-05-30 12:42:00,57.0,47.0,-100.00,South,180,4.0,10.0,69,-99.99,,,-99.99,,2013-05-30 19:42:00,
2013-05-30 12:52:00,57.0,46.0,-100.00,West,270,8.0,16.0,68,-99.99,,,-99.99,,2013-05-30 19:52:00,
2013-05-30 13:01:00,57.0,45.0,-100.00,SW,225,6.0,14.0,64,-99.99,,,-99.99,,2013-05-30 20:01:00,
2013-05-30 13:11:00,57.0,45.0,-100.00,SW,225,6.0,14.0,64,-99.99,,,-99.99,,2013-05-30 20:11:00,
2013-05-30 13:22:00,58.0,44.0,-100.00,SW,225,6.0,12.0,59,-99.99,,,-99.99,,2013-05-30 20:22:00,
2013-05-30 13:33:00,59.0,44.0,-100.00,SW,225,7.0,16.0,59,-99.99,,,-99.99,,2013-05-30 20:33:00,
2013-05-30 13:42:00,59.0,44.0,-100.00,SW,225,7.0,16.0,59,-99.99,,,-99.99,,2013-05-30 20:42:00,
2013-05-30 13:52:00,57.0,45.0,-100.00,SW,225,8.0,14.0,63,-99.99,,,-99.99,,2013-05-30 20:52:00,
2013-05-30 14:01:00,57.0,45.0,-100.00,SW,225,6.0,12.0,65,-99.99,,,-99.99,,2013-05-30 21:01:00,
2013-05-30 14:11:00,59.0,46.0,-100.00,SW,225,4.0,9.0,62,-99.99,,,-99.99,,2013-05-30 21:11:00,
2013-05-30 14:22:00,59.0,46.0,-100.00,SW,225,4.0,9.0,62,-99.99,,,-99.99,,2013-05-30 21:22:00,
2013-05-30 14:33:00,58.0,47.0,-100.00,North,0,3.0,11.0,67,-99.99,,,-99.99,,2013-05-30 21:33:00,
2013-05-30 14:42:00,58.0,47.0,-100.00,North,0,3.0,11.0,67,-99.99,,,-99.99,,2013-05-30 21:42:00,
2013-05-30 14:53:00,60.0,46.0,-100.00,SW,225,3.0,13.0,59,-99.99,,,-99.99,,2013-05-30 21:53:00,
2013-05-30 15:02:00,60.0,45.0,-100.00,South,180,4.0,11.0,57,-99.99,,,-99.99,,2013-05-30 22:02:00,
2013-05-30 15:12:00,60.0,45.0,-100.00,South,180,4.0,11.0,57,-99.99,,,-99.99,,2013-05-30 22:12:00,
2013-05-30 15:22:00,61.0,45.0,-100.00,NW,315,3.0,11.0,55,-99.99,,,-99.99,,2013-05-30 22:22:00,
2013-05-30 15:32:00,61.0,44.0,-100.00,North,0,2.0,7.0,54,-99.99,,,-99.99,,2013-05-30 22:32:00,
2013-05-30 15:42:00,61.0,44.0,-100.00,North,0,2.0,7.0,54,-99.99,,,-99.99,,2013-05-30 22:42:00,
2013-05-30 15:52:00,60.0,43.0,-100.00,SW,225,7.0,13.0,53,-99.99,,,-99.99,,2013-05-30 22:52:00,
2013-05-30 16:02:00,61.0,44.0,-100.00,East,90,1.0,12.0,54,-99.99,,,-99.99,,2013-05-30 23:02:00,
2013-05-30 16:11:00,61.0,44.0,-100.00,East,90,1.0,12.0,54,-99.99,,,-99.99,,2013-05-30 23:11:00,
2013-05-30 16:22:00,60.0,45.0,-100.00,SW,225,5.0,15.0,57,-99.99,,,-99.99,,2013-05-30 23:22:00,
2013-05-30 16:31:00,60.0,45.0,-100.00,SW,225,9.0,17.0,57,-99.99,,,-99.99,,2013-05-30 23:31:00,
2013-05-30 16:41:00,60.0,45.0,-100.00,SW,225,9.0,17.0,57,-99.99,,,-99.99,,2013-05-30 23:41:00,
2013-05-30 16:52:00,60.0,45.0,-100.00,NW,315,2.0,12.0,57,-99.99,,,-99.99,,2013-05-30 23:52:00,
2013-05-30 17:01:00,62.0,46.0,-100.00,SW,225,6.0,15.0,55,-99.99,,,-99.99,,2013-05-31 00:01:00,
2013-05-30 17:11:00,62.0,46.0,-100.00,SW,225,6.0,15.0,55,-99.99,,,-99.99,,2013-05-31 00:11:00,
2013-05-30 17:21:00,60.0,46.0,-100.00,SW,225,5.0,12.0,59,-99.99,,,-99.99,,2013-05-31 00:21:00,
2013-05-30 17:32:00,60.0,46.0,-100.00,SW,225,5.0,12.0,59,-99.99,,,-99.99,,2013-05-31 00:32:00,
2013-05-30 17:42:00,60.0,46.0,-100.00,SW,225,5.0,12.0,59,-99.99,,,-99.99,,2013-05-31 00:42:00,
2013-05-30 17:52:00,60.0,46.0,-100.00,SW,225,4.0,14.0,60,-99.99,,,-99.99,,2013-05-31 00:52:00,
2013-05-30 18:01:00,59.0,45.0,-100.00,West,270,4.0,12.0,59,-99.99,,,-99.99,,2013-05-31 01:01:00,
2013-05-30 18:12:00,59.0,45.0,-100.00,West,270,4.0,12.0,59,-99.99,,,-99.99,,2013-05-31 01:12:00,
2013-05-30 18:21:00,61.0,46.0,-100.00,South,180,3.0,8.0,57,-99.99,,,-99.99,,2013-05-31 01:21:00,
2013-05-30 18:31:00,60.0,45.0,-100.00,SW,225,5.0,9.0,59,-99.99,,,-99.99,,2013-05-31 01:31:00,
2013-05-30 18:42:00,60.0,45.0,-100.00,SW,225,5.0,9.0,59,-99.99,,,-99.99,,2013-05-31 01:42:00,
2013-05-30 18:52:00,59.0,46.0,-100.00,SW,225,5.0,10.0,62,-99.99,,,-99.99,,2013-05-31 01:52:00,
2013-05-30 19:02:00,58.0,48.0,-100.00,SW,225,4.0,10.0,71,-99.99,,,-99.99,,2013-05-31 02:02:00,
2013-05-30 19:11:00,55.0,49.0,-100.00,South,180,6.0,9.0,79,-99.99,,,-99.99,,2013-05-31 02:11:00,
2013-05-30 19:21:00,55.0,49.0,-100.00,South,180,6.0,9.0,79,-99.99,,,-99.99,,2013-05-31 02:21:00,
2013-05-30 19:32:00,54.0,49.0,-100.00,South,180,4.0,8.0,83,-99.99,,,-99.99,,2013-05-31 02:32:00,
2013-05-30 19:41:00,54.0,49.0,-100.00,South,180,4.0,8.0,83,-99.99,,,-99.99,,2013-05-31 02:41:00,
2013-05-30 19:52:00,55.0,50.0,-100.00,South,180,4.0,6.0,81,-99.99,,,-99.99,,2013-05-31 02:52:00,
2013-05-30 20:01:00,56.0,51.0,-100.00,South,180,2.0,4.0,86,-99.99,,,-99.99,,2013-05-31 03:01:00,
2013-05-30 20:11:00,55.0,52.0,-100.00,SW,225,1.0,4.0,88,-99.99,,,-99.99,,2013-05-31 03:11:00,
2013-05-30 20:21:00,55.0,52.0,-100.00,SW,225,1.0,4.0,88,-99.99,,,-99.99,,2013-05-31 03:21:00,
2013-05-30 20:33:00,54.0,51.0,-100.00,South,180,3.0,6.0,87,-99.99,,,-99.99,,2013-05-31 03:33:00,
2013-05-30 20:43:00,54.0,51.0,-100.00,South,180,3.0,6.0,87,-99.99,,,-99.99,,2013-05-31 03:43:00,
2013-05-30 20:53:00,55.0,51.0,-100.00,SW,225,3.0,6.0,88,-99.99,,,-99.99,,2013-05-31 03:53:00,
2013-05-30 21:02:00,54.0,51.0,-100.00,South,180,2.0,4.0,89,-99.99,,,-99.99,,2013-05-31 04:02:00,
2013-05-30 21:12:00,54.0,50.0,-100.00,South,180,1.0,3.0,89,-99.99,,,-99.99,,2013-05-31 04:12:00,
2013-05-30 21:22:00,54.0,50.0,-100.00,South,180,1.0,3.0,89,-99.99,,,-99.99,,2013-05-31 04:22:00,
2013-05-30 21:32:00,54.0,50.0,-100.00,South,180,2.0,3.0,89,-99.99,,,-99.99,,2013-05-31 04:32:00,
2013-05-30 21:42:00,54.0,50.0,-100.00,South,180,2.0,3.0,89,-99.99,,,-99.99,,2013-05-31 04:42:00,
2013-05-30 21:53:00,53.0,51.0,-100.00,SW,225,0.0,2.0,91,-99.99,,,-99.99,,2013-05-31 04:53:00,
2013-05-30 22:02:00,53.0,51.0,-100.00,SW,225,0.0,2.0,91,-99.99,,,-99.99,,2013-05-31 05:02:00,
2013-05-30 22:12:00,53.0,51.0,-100.00,SW,225,0.0,2.0,91,-99.99,,,-99.99,,2013-05-31 05:12:00,
2013-05-30 22:22:00,53.0,51.0,-100.00,NE,45,0.0,2.0,92,-99.99,,,-99.99,,2013-05-31 05:22:00,
2013-05-30 22:31:00,53.0,51.0,-100.00,SE,135,1.0,3.0,91,-99.99,,,-99.99,,2013-05-31 05:31:00,
2013-05-30 22:42:00,53.0,51.0,-100.00,SE,135,1.0,3.0,91,-99.99,,,-99.99,,2013-05-31 05:42:00,
2013-05-30 22:52:00,53.0,51.0,-100.00,SE,135,1.0,3.0,91,-99.99,,,-99.99,,2013-05-31 05:52:00,
2013-05-30 23:01:00,53.0,50.0,-100.00,SE,135,0.0,3.0,91,-99.99,,,-99.99,,2013-05-31 06:01:00,
2013-05-30 23:12:00,53.0,50.0,-100.00,SE,135,0.0,3.0,91,-99.99,,,-99.99,,2013-05-31 06:12:00,
2013-05-30 23:21:00,52.0,50.0,-100.00,East,90,1.0,2.0,92,-99.99,,,-99.99,,2013-05-31 06:21:00,
2013-05-30 23:31:00,52.0,50.0,-100.00,SE,135,1.0,2.0,92,-99.99,,,-99.99,,2013-05-31 06:31:00,
2013-05-30 23:41:00,52.0,50.0,-100.00,SE,135,1.0,2.0,92,-99.99,,,-99.99,,2013-05-31 06:41:00,
2013-05-30 23:52:00,52.0,50.0,-100.00,South,180,0.0,1.0,93,-99.99,,,-99.99,,2013-05-31 06:52:00,